Time;durP1;ratioP1;P1;durP2;ratioP2;P2;SDS_P1;SDS_P2;PMS_P1;PMS_P2;Temp;Humidity;BMP_temperature;BMP_pressure;BME280_temperature;BME280_humidity;BME280_pressure;Samples;Min_cycle;Max_cycle;Signal;HPM_P1;HPM_P2
2022/05/26 00:01:56;;;;;;;;;;;;;;;;;;5098735;28;20312;-80
2022/05/26 00:04:22;;;;;;;3.67;0.70;;;;;;;;;;5061094;28;20800;-80
2022/05/26 00:06:48;;;;;;;;;;;;;;;;;;5082920;28;20084;-80
2022/05/26 00:09:14;;;;;;;3.55;0.80;;;;;;;;;;5076347;28;19916;-80
2022/05/26 00:11:40;;;;;;;;;;;;;;;;;;5080908;28;20106;-80
2022/05/26 00:14:08;;;;;;;2.42;0.80;;;;;;;;;;5060520;28;20381;-80
2022/05/26 00:16:52;;;;;;;4.72;0.80;;;;;;;;;;5085238;28;20032;-80
2022/05/26 00:19:19;;;;;;;3.70;0.80;;;;;;;;;;5082984;28;20170;-80
2022/05/26 00:21:49;;;;;;;4.82;0.88;;;;;;;;;;5063135;28;20055;-80
2022/05/26 00:24:16;;;;;;;1.67;0.52;;;;;;;;;;5066297;28;20086;-79
2022/05/26 00:26:42;;;;;;;2.08;0.70;;;;;;;;;;5085801;28;20024;-80
2022/05/26 00:29:08;;;;;;;2.45;0.80;;;;;;;;;;5086347;28;20087;-80
2022/05/26 00:31:34;;;;;;;1.92;0.60;;;;;;;;;;5072860;28;20020;-79
2022/05/26 00:34:00;;;;;;;;;;;;;;;;;;5069969;28;20027;-79
2022/05/26 00:36:39;;;;;;;3.33;0.85;;;;;;;;;;5086811;28;19919;-79
2022/05/26 00:39:13;;;;;;;4.00;0.65;;;;;;;;;;5082429;28;20115;-79
2022/05/26 00:41:45;;;;;;;2.47;0.65;;;;;;;;;;5081471;28;20036;-80
2022/05/26 00:44:11;;;;;;;2.92;0.65;;;;;;;;;;5057757;28;20028;-78
2022/05/26 00:46:37;;;;;;;;;;;;;;;;;;5087723;28;20678;-78
2022/05/26 00:49:03;;;;;;;2.63;0.70;;;;;;;;;;5090327;28;19999;-78
2022/05/26 00:51:34;;;;;;;1.90;0.65;;;;;;;;;;5093124;28;20050;-78
2022/05/26 00:54:05;;;;;;;1.88;0.60;;;;;;;;;;5088527;28;20058;-79
2022/05/26 00:56:39;;;;;;;3.95;0.75;;;;;;;;;;5082388;28;20027;-80
2022/05/26 00:59:17;;;;;;;2.80;0.70;;;;;;;;;;5076778;28;20019;-80
2022/05/26 01:01:44;;;;;;;4.10;0.70;;;;;;;;;;5079965;28;20062;-80
2022/05/26 01:04:13;;;;;;;4.80;0.50;;;;;;;;;;5079675;28;20031;-80
2022/05/26 01:06:45;;;;;;;3.53;0.88;;;;;;;;;;5094388;28;20028;-80
2022/05/26 01:09:12;;;;;;;3.95;0.70;;;;;;;;;;5092385;28;20474;-80
2022/05/26 01:11:39;;;;;;;5.15;0.70;;;;;;;;;;5078783;28;20055;-80
2022/05/26 01:14:07;;;;;;;2.45;0.63;;;;;;;;;;5075827;28;20032;-80
2022/05/26 01:16:49;;;;;;;3.53;0.70;;;;;;;;;;5093887;28;20032;-80
2022/05/26 01:19:15;;;;;;;1.42;0.60;;;;;;;;;;5089204;28;20105;-80
2022/05/26 01:21:46;;;;;;;2.65;0.70;;;;;;;;;;5090817;28;20027;-80
2022/05/26 01:24:24;;;;;;;4.68;1.00;;;;;;;;;;5096401;28;20366;-80
2022/05/26 01:26:59;;;;;;;3.17;0.70;;;;;;;;;;5080398;28;20508;-80
2022/05/26 01:29:44;;;;;;;2.45;0.68;;;;;;;;;;5093086;28;20630;-80
2022/05/26 01:32:16;;;;;;;1.48;0.60;;;;;;;;;;5075379;28;20044;-81
2022/05/26 01:34:45;;;;;;;3.22;0.75;;;;;;;;;;5095850;28;20024;-81
2022/05/26 01:37:28;;;;;;;3.10;0.70;;;;;;;;;;5093695;28;20059;-80
2022/05/26 01:39:54;;;;;;;3.47;0.63;;;;;;;;;;5076001;28;20020;-80
2022/05/26 01:42:39;;;;;;;5.55;0.90;;;;;;;;;;5094452;28;20019;-80
2022/05/26 01:45:14;;;;;;;2.75;0.70;;;;;;;;;;5073298;28;20042;-80
2022/05/26 01:47:51;;;;;;;3.10;0.75;;;;;;;;;;5089287;28;20103;-80
2022/05/26 01:50:17;;;;;;;;;;;;;;;;;;5095348;28;20444;-80
2022/05/26 01:52:47;;;;;;;3.55;0.70;;;;;;;;;;5090528;28;19937;-80
2022/05/26 01:55:27;;;;;;;2.13;0.70;;;;;;;;;;5084579;28;20028;-80
2022/05/26 01:57:59;;;;;;;3.25;0.75;;;;;;;;;;5071733;28;20379;-80
2022/05/26 02:00:25;;;;;;;3.08;0.60;;;;;;;;;;5084431;28;20039;-77
2022/05/26 02:03:05;;;;;;;1.85;0.60;;;;;;;;;;5071121;28;20070;-80
2022/05/26 02:05:38;;;;;;;1.58;0.60;;;;;;;;;;5090830;28;20074;-80
2022/05/26 02:08:07;;;;;;;2.47;0.70;;;;;;;;;;5080796;28;20032;-80
2022/05/26 02:10:35;;;;;;;3.78;0.70;;;;;;;;;;5087948;28;20302;-80
2022/05/26 02:13:12;;;;;;;1.45;0.52;;;;;;;;;;5081509;28;20331;-79
2022/05/26 02:16:02;;;;;;;3.17;0.60;;;;;;;;;;5080891;28;20544;-80
2022/05/26 02:18:32;;;;;;;3.47;0.63;;;;;;;;;;5083803;28;20039;-80
2022/05/26 02:21:01;;;;;;;2.25;0.63;;;;;;;;;;5088039;28;20085;-79
2022/05/26 02:23:33;;;;;;;1.95;0.55;;;;;;;;;;5069582;28;20125;-80
2022/05/26 02:26:01;;;;;;;2.40;0.70;;;;;;;;;;5070038;28;20031;-79
2022/05/26 02:28:27;;;;;;;2.63;0.60;;;;;;;;;;5079495;28;20024;-79
2022/05/26 02:30:53;;;;;;;;;;;;;;;;;;5076306;28;20024;-78
2022/05/26 02:33:19;;;;;;;2.67;0.70;;;;;;;;;;5060991;28;20583;-79
2022/05/26 02:35:45;;;;;;;;;;;;;;;;;;5091098;28;20012;-79
2022/05/26 02:38:14;;;;;;;2.28;0.52;;;;;;;;;;5064050;28;20540;-79
2022/05/26 02:40:40;;;;;;;1.90;0.50;;;;;;;;;;5086823;28;20455;-80
2022/05/26 02:43:10;;;;;;;1.98;0.60;;;;;;;;;;5062837;28;20127;-78
2022/05/26 02:45:36;;;;;;;3.00;0.60;;;;;;;;;;5066646;28;20020;-80
2022/05/26 02:48:11;;;;;;;3.78;0.70;;;;;;;;;;5075727;28;20028;-80
2022/05/26 02:51:03;;;;;;;4.05;0.80;;;;;;;;;;5087913;28;20020;-80
2022/05/26 02:53:42;;;;;;;4.43;0.90;;;;;;;;;;5091976;28;20505;-78
2022/05/26 02:56:11;;;;;;;2.20;0.60;;;;;;;;;;5066538;28;20035;-78
2022/05/26 02:58:46;;;;;;;3.60;0.85;;;;;;;;;;5093928;28;20082;-78
2022/05/26 03:01:22;;;;;;;2.97;0.70;;;;;;;;;;5084810;28;20084;-78
2022/05/26 03:04:07;;;;;;;2.83;0.70;;;;;;;;;;5075802;28;20035;-77
2022/05/26 03:06:33;;;;;;;2.78;0.80;;;;;;;;;;5096433;28;20526;-78
2022/05/26 03:09:01;;;;;;;3.17;0.80;;;;;;;;;;5075607;28;20036;-78
2022/05/26 03:11:27;;;;;;;1.38;0.50;;;;;;;;;;5057642;28;20029;-78
2022/05/26 03:13:54;;;;;;;2.90;0.70;;;;;;;;;;5071684;28;20028;-78
2022/05/26 03:16:20;;;;;;;6.45;0.80;;;;;;;;;;5055722;28;20039;-77
2022/05/26 03:18:46;;;;;;;2.83;0.80;;;;;;;;;;5082900;28;20177;-78
2022/05/26 03:21:13;;;;;;;4.40;0.70;;;;;;;;;;5077590;28;20515;-78
2022/05/26 03:23:39;;;;;;;1.95;0.57;;;;;;;;;;5085144;28;20541;-78
2022/05/26 03:26:06;;;;;;;6.65;0.90;;;;;;;;;;5086555;28;20047;-78
2022/05/26 03:28:33;;;;;;;4.90;0.80;;;;;;;;;;5067978;28;20203;-78
2022/05/26 03:30:59;;;;;;;3.28;0.60;;;;;;;;;;5080095;28;20091;-78
2022/05/26 03:40:45;;;;;;;4.85;0.85;;;;;;;;;;5069424;28;20035;-78
2022/05/26 03:41:42;;;;;;;5.13;0.93;;;;;;;;;;5076579;28;20500;-80
2022/05/26 03:44:08;;;;;;;;;;;;;;;;;;5071044;28;20028;-80
2022/05/26 03:46:34;;;;;;;5.13;1.00;;;;;;;;;;5073586;28;19961;-79
2022/05/26 03:49:00;;;;;;;5.55;1.20;;;;;;;;;;5048864;28;20029;-79
2022/05/26 03:51:27;;;;;;;5.28;1.00;;;;;;;;;;5057782;28;20024;-80
2022/05/26 03:53:53;;;;;;;;;;;;;;;;;;5081463;28;20085;-79
2022/05/26 03:56:19;;;;;;;4.93;1.10;;;;;;;;;;5077993;28;19912;-80
2022/05/26 03:58:45;;;;;;;2.13;0.70;;;;;;;;;;5066461;28;20032;-80
2022/05/26 04:01:11;;;;;;;;;;;;;;;;;;5074401;28;20449;-80
2022/05/26 04:03:37;;;;;;;4.95;0.80;;;;;;;;;;5057721;28;19915;-80
2022/05/26 04:06:03;;;;;;;;;;;;;;;;;;5055561;28;20689;-80
2022/05/26 04:08:29;;;;;;;4.00;0.80;;;;;;;;;;5068772;28;19959;-79
2022/05/26 04:10:56;;;;;;;4.55;0.70;;;;;;;;;;5087458;28;20028;-80
2022/05/26 04:13:22;;;;;;;6.68;0.95;;;;;;;;;;5069271;28;20107;-80
2022/05/26 04:15:49;;;;;;;8.15;0.90;;;;;;;;;;5062034;28;20028;-80
2022/05/26 04:18:15;;;;;;;;;;;;;;;;;;5075788;28;20435;-80
2022/05/26 04:20:41;;;;;;;4.38;0.85;;;;;;;;;;5083752;28;19942;-79
2022/05/26 04:23:07;;;;;;;;;;;;;;;;;;5084160;28;20565;-79
2022/05/26 04:25:33;;;;;;;6.47;1.02;;;;;;;;;;5068514;28;19912;-79
2022/05/26 04:27:59;;;;;;;;;;;;;;;;;;5081790;28;20098;-79
2022/05/26 04:30:25;;;;;;;5.22;1.08;;;;;;;;;;5062500;28;19916;-79
2022/05/26 04:32:51;;;;;;;;;;;;;;;;;;5061050;28;20371;-79
2022/05/26 04:35:18;;;;;;;7.53;1.00;;;;;;;;;;5082787;28;20322;-79
2022/05/26 04:37:45;;;;;;;5.22;0.80;;;;;;;;;;5082679;28;20032;-79
2022/05/26 04:40:12;;;;;;;5.28;1.10;;;;;;;;;;5074256;28;20046;-80
2022/05/26 04:42:39;;;;;;;3.85;0.93;;;;;;;;;;5089122;28;20036;-80
2022/05/26 04:45:07;;;;;;;6.80;1.00;;;;;;;;;;5082208;28;20078;-79
2022/05/26 04:47:33;;;;;;;4.22;0.80;;;;;;;;;;5083335;28;20031;-78
2022/05/26 04:49:59;;;;;;;;;;;;;;;;;;5085631;28;20024;-79
2022/05/26 04:52:26;;;;;;;5.05;0.80;;;;;;;;;;5074596;28;19912;-79
2022/05/26 04:54:52;;;;;;;6.80;1.10;;;;;;;;;;5095167;28;20024;-80
2022/05/26 04:57:20;;;;;;;5.20;0.93;;;;;;;;;;5065379;28;20020;-79
2022/05/26 04:59:46;;;;;;;5.07;1.40;;;;;;;;;;5044148;28;20402;-79
2022/05/26 05:02:13;;;;;;;8.73;1.30;;;;;;;;;;5062197;28;20151;-79
2022/05/26 05:04:41;;;;;;;6.90;1.10;;;;;;;;;;5045828;28;20028;-79
2022/05/26 05:07:09;;;;;;;7.00;1.33;;;;;;;;;;5075024;28;20028;-79
2022/05/26 05:09:36;;;;;;;13.63;1.83;;;;;;;;;;5071794;28;20196;-77
2022/05/26 05:12:03;;;;;;;12.38;2.28;;;;;;;;;;5065008;28;20365;-77
2022/05/26 05:14:31;;;;;;;7.35;1.40;;;;;;;;;;5062960;28;20024;-78
2022/05/26 05:16:57;;;;;;;12.05;2.03;;;;;;;;;;5060647;28;20127;-78
2022/05/26 05:19:23;;;;;;;;;;;;;;;;;;5058032;28;20788;-79
2022/05/26 05:22:04;;;;;;;8.57;1.80;;;;;;;;;;5068275;28;19947;-78
2022/05/26 05:24:34;;;;;;;9.35;1.50;;;;;;;;;;5044674;28;21355;-78
2022/05/26 05:27:04;;;;;;;8.07;1.40;;;;;;;;;;5067673;28;20049;-78
2022/05/26 05:29:33;;;;;;;12.40;1.50;;;;;;;;;;5046084;28;20074;-77
2022/05/26 05:32:01;;;;;;;9.23;1.58;;;;;;;;;;5064965;28;20028;-78
2022/05/26 05:34:33;;;;;;;8.18;1.50;;;;;;;;;;5049704;28;20083;-80
2022/05/26 05:36:59;;;;;;;7.18;1.35;;;;;;;;;;5083095;28;20027;-77
2022/05/26 05:39:26;;;;;;;7.07;1.40;;;;;;;;;;5055599;28;20028;-78
2022/05/26 05:41:54;;;;;;;9.15;1.30;;;;;;;;;;5080836;28;20604;-78
2022/05/26 05:44:21;;;;;;;9.35;1.60;;;;;;;;;;5085082;28;20039;-78
2022/05/26 05:46:59;;;;;;;9.75;1.85;;;;;;;;;;5065211;28;20036;-78
2022/05/26 05:49:27;;;;;;;10.30;1.65;;;;;;;;;;5067791;28;20229;-79
2022/05/26 05:51:53;;;;;;;11.13;1.60;;;;;;;;;;5051473;28;20027;-78
2022/05/26 05:54:20;;;;;;;9.85;1.75;;;;;;;;;;5049128;28;20381;-81
2022/05/26 05:56:47;;;;;;;9.23;2.10;;;;;;;;;;5070467;28;20480;-78
2022/05/26 05:59:14;;;;;;;13.30;2.40;;;;;;;;;;5068031;28;20795;-79
2022/05/26 06:01:40;;;;;;;10.50;2.10;;;;;;;;;;5074466;28;20032;-78
2022/05/26 06:04:06;;;;;;;12.85;2.60;;;;;;;;;;5052892;28;20036;-79
2022/05/26 06:06:37;;;;;;;9.40;2.20;;;;;;;;;;5049505;28;20028;-79
2022/05/26 06:09:03;;;;;;;12.65;1.90;;;;;;;;;;5058183;28;20017;-78
2022/05/26 06:11:29;;;;;;;11.50;2.00;;;;;;;;;;5053518;28;20367;-81
2022/05/26 06:13:55;;;;;;;;;;;;;;;;;;5050261;28;20110;-79
2022/05/26 06:16:22;;;;;;;11.63;2.15;;;;;;;;;;5047407;28;19912;-79
2022/05/26 06:18:50;;;;;;;;;;;;;;;;;;5069876;28;20435;-80
2022/05/26 06:21:16;;;;;;;10.98;2.10;;;;;;;;;;5050200;28;19947;-79
2022/05/26 06:23:45;;;;;;;14.23;2.22;;;;;;;;;;5073999;28;20082;-78
2022/05/26 06:26:14;;;;;;;12.05;2.10;;;;;;;;;;5075399;28;20036;-78
2022/05/26 06:31:28;;;;;;;11.25;2.25;;;;;;;;;;5069845;28;20047;-78
2022/05/26 06:39:25;;;;;;;12.10;2.00;;;;;;;;;;5058004;28;20130;-80
2022/05/26 06:42:07;;;;;;;11.30;2.33;;;;;;;;;;5056321;28;20475;-80
2022/05/26 06:44:34;;;;;;;16.92;2.60;;;;;;;;;;5061546;28;20278;-79
2022/05/26 06:47:01;;;;;;;12.13;2.28;;;;;;;;;;5068330;28;20024;-78
2022/05/26 06:49:27;;;;;;;14.70;2.42;;;;;;;;;;5045784;28;20096;-80
2022/05/26 06:51:53;;;;;;;;;;;;;;;;;;5068706;28;20031;-80
2022/05/26 06:54:19;;;;;;;16.30;2.33;;;;;;;;;;5061942;28;20005;-80
2022/05/26 06:56:45;;;;;;;;;;;;;;;;;;5065232;28;20291;-80
2022/05/26 06:59:11;;;;;;;13.38;2.60;;;;;;;;;;5067953;28;19912;-80
2022/05/26 07:01:37;;;;;;;;;;;;;;;;;;5070892;28;20054;-79
2022/05/26 07:04:03;;;;;;;10.23;1.90;;;;;;;;;;5066551;28;19912;-78
2022/05/26 07:06:30;;;;;;;11.40;1.77;;;;;;;;;;5062402;28;20101;-80
2022/05/26 07:08:57;;;;;;;10.02;2.08;;;;;;;;;;5068466;28;20137;-80
2022/05/26 07:11:23;;;;;;;15.00;1.88;;;;;;;;;;5059937;28;20040;-78
2022/05/26 07:13:49;;;;;;;;;;;;;;;;;;5064663;28;20695;-80
2022/05/26 07:16:15;;;;;;;11.73;2.03;;;;;;;;;;5068151;28;20114;-79
2022/05/26 07:18:42;;;;;;;9.48;1.85;;;;;;;;;;5070211;28;20112;-79
2022/05/26 07:21:09;;;;;;;12.50;2.20;;;;;;;;;;5060938;28;20623;-80
2022/05/26 07:23:35;;;;;;;11.98;2.10;;;;;;;;;;5047914;28;20587;-79
2022/05/26 07:26:05;;;;;;;14.10;2.53;;;;;;;;;;5073075;28;20031;-78
2022/05/26 07:28:33;;;;;;;12.68;2.10;;;;;;;;;;5057346;28;20478;-79
2022/05/26 07:30:59;;;;;;;7.47;1.70;;;;;;;;;;5057123;28;20560;-78
2022/05/26 07:33:25;;;;;;;;;;;;;;;;;;5067153;28;20113;-78
2022/05/26 07:35:51;;;;;;;11.20;2.28;;;;;;;;;;5073127;28;20528;-79
2022/05/26 07:41:17;;;;;;;9.02;1.83;;;;;;;;;;5063865;28;20390;-78
2022/05/26 07:43:46;;;;;;;11.93;2.00;;;;;;;;;;5051924;28;20024;-78
2022/05/26 07:46:12;;;;;;;9.85;1.90;;;;;;;;;;5040389;28;20059;-79
2022/05/26 07:48:38;;;;;;;9.02;2.05;;;;;;;;;;5047206;28;20394;-79
2022/05/26 07:51:04;;;;;;;;;;;;;;;;;;5046486;28;20284;-79
2022/05/26 07:53:31;;;;;;;13.65;2.63;;;;;;;;;;5065899;28;20278;-79
2022/05/26 07:56:00;;;;;;;10.57;1.73;;;;;;;;;;5058238;28;20021;-79
2022/05/26 07:58:26;;;;;;;10.40;1.90;;;;;;;;;;5048850;28;20494;-80
2022/05/26 08:00:53;;;;;;;9.23;2.00;;;;;;;;;;5048132;28;20051;-80
2022/05/26 08:03:19;;;;;;;9.98;1.98;;;;;;;;;;5066709;28;20032;-80
2022/05/26 08:05:46;;;;;;;9.05;1.85;;;;;;;;;;5065811;28;20039;-79
2022/05/26 08:08:11;;;;;;;;;;;;;;;;;;5068069;28;20036;-79
2022/05/26 08:10:39;;;;;;;10.75;2.40;;;;;;;;;;5064977;28;20312;-78
2022/05/26 08:13:06;;;;;;;8.65;1.80;;;;;;;;;;5058901;28;20083;-80
2022/05/26 08:15:32;;;;;;;12.63;1.98;;;;;;;;;;5065038;28;20940;-78
2022/05/26 08:17:58;;;;;;;10.68;2.38;;;;;;;;;;5065439;28;20454;-77
2022/05/26 08:20:25;;;;;;;11.85;2.20;;;;;;;;;;5047329;28;20059;-78
2022/05/26 08:22:52;;;;;;;10.90;2.22;;;;;;;;;;5053439;28;20111;-80
2022/05/26 08:25:18;;;;;;;12.23;2.20;;;;;;;;;;5057985;28;20069;-79
2022/05/26 08:27:44;;;;;;;8.73;2.10;;;;;;;;;;5074927;28;20089;-80
2022/05/26 08:30:11;;;;;;;9.15;1.58;;;;;;;;;;5053271;28;20344;-78
2022/05/26 08:32:37;;;;;;;10.20;1.70;;;;;;;;;;5041941;28;20020;-78
2022/05/26 08:35:03;;;;;;;;;;;;;;;;;;5072707;28;20320;-79
2022/05/26 08:37:30;;;;;;;10.57;1.70;;;;;;;;;;5090352;28;19951;-79
2022/05/26 08:39:56;;;;;;;7.85;1.55;;;;;;;;;;5084656;28;20032;-81
2022/05/26 08:42:25;;;;;;;9.90;1.63;;;;;;;;;;5069285;28;20123;-80
2022/05/26 08:44:55;;;;;;;10.20;1.40;;;;;;;;;;5056153;28;20061;-81
2022/05/26 08:47:22;;;;;;;8.35;1.63;;;;;;;;;;5073026;28;20098;-77
2022/05/26 08:49:51;;;;;;;8.68;2.00;;;;;;;;;;5062324;28;20024;-78
2022/05/26 08:52:21;;;;;;;10.70;2.10;;;;;;;;;;5075700;28;20032;-78
2022/05/26 08:54:52;;;;;;;10.00;1.98;;;;;;;;;;5080217;28;20426;-79
2022/05/26 08:57:26;;;;;;;10.88;2.10;;;;;;;;;;5063468;28;20299;-79
2022/05/26 08:59:52;;;;;;;8.77;1.60;;;;;;;;;;5057339;28;20081;-79
2022/05/26 09:02:23;;;;;;;7.88;1.13;;;;;;;;;;5063147;28;20039;-79
2022/05/26 09:04:49;;;;;;;11.50;1.70;;;;;;;;;;5063044;28;20036;-78
2022/05/26 09:12:56;;;;;;;;;;;;;;;;;;5059938;28;20513;-79
2022/05/26 09:15:22;;;;;;;8.10;1.25;;;;;;;;;;5059950;28;19912;-79
2022/05/26 09:17:49;;;;;;;8.10;1.25;;;;;;;;;;5061464;28;20024;-77
2022/05/26 09:20:25;;;;;;;12.73;1.88;;;;;;;;;;5056312;28;20090;-76
2022/05/26 09:22:52;;;;;;;8.38;1.90;;;;;;;;;;5055168;28;20846;-77
2022/05/26 09:25:44;;;;;;;8.88;1.50;;;;;;;;;;5043797;28;20024;-80
2022/05/26 09:28:11;;;;;;;7.60;1.50;;;;;;;;;;5054521;28;20040;-77
2022/05/26 09:30:38;;;;;;;10.32;1.60;;;;;;;;;;5055094;28;20028;-77
2022/05/26 09:33:17;;;;;;;7.18;1.50;;;;;;;;;;5057207;28;20107;-77
2022/05/26 09:35:43;;;;;;;9.88;1.30;;;;;;;;;;5064799;28;20078;-80
2022/05/26 09:38:16;;;;;;;8.85;1.40;;;;;;;;;;5065954;28;20513;-77
2022/05/26 09:40:46;;;;;;;8.95;1.27;;;;;;;;;;5061824;28;20036;-76
2022/05/26 09:43:18;;;;;;;8.27;1.40;;;;;;;;;;5059135;28;20035;-80
2022/05/26 09:45:52;;;;;;;9.75;1.80;;;;;;;;;;5060982;28;20037;-78
2022/05/26 09:48:18;;;;;;;5.07;1.30;;;;;;;;;;5060037;28;20050;-77
2022/05/26 09:50:48;;;;;;;5.88;1.10;;;;;;;;;;5060268;28;20525;-77
2022/05/26 09:53:26;;;;;;;6.10;1.00;;;;;;;;;;5059762;28;20069;-77
2022/05/26 09:55:55;;;;;;;9.63;1.50;;;;;;;;;;5064251;28;20036;-77
2022/05/26 09:58:29;;;;;;;9.38;1.38;;;;;;;;;;5056809;28;20197;-78
2022/05/26 10:01:00;;;;;;;7.63;1.58;;;;;;;;;;5061301;28;20082;-78
2022/05/26 10:03:45;;;;;;;12.50;1.60;;;;;;;;;;5055356;28;20032;-77
2022/05/26 10:06:15;;;;;;;11.75;1.90;;;;;;;;;;5038798;28;20182;-76
2022/05/26 10:08:41;;;;;;;8.25;1.30;;;;;;;;;;5059694;28;20572;-77
2022/05/26 10:11:12;;;;;;;7.28;1.15;;;;;;;;;;5040951;28;20066;-78
2022/05/26 10:13:41;;;;;;;7.03;1.30;;;;;;;;;;5064757;28;20389;-76
2022/05/26 10:16:13;;;;;;;10.73;1.70;;;;;;;;;;5060353;28;20032;-76
2022/05/26 10:18:48;;;;;;;7.30;1.20;;;;;;;;;;5062228;28;20028;-77
2022/05/26 10:21:14;;;;;;;6.97;1.50;;;;;;;;;;5058940;28;20066;-77
2022/05/26 10:23:40;;;;;;;6.38;1.40;;;;;;;;;;5041767;28;20062;-77
2022/05/26 10:26:16;;;;;;;7.90;1.40;;;;;;;;;;5060123;28;20039;-79
2022/05/26 10:28:42;;;;;;;6.93;1.65;;;;;;;;;;5063407;28;20066;-78
2022/05/26 10:31:18;;;;;;;8.80;1.60;;;;;;;;;;5060343;28;20028;-78
2022/05/26 10:33:56;;;;;;;7.03;1.40;;;;;;;;;;5061831;28;20028;-78
2022/05/26 10:36:25;;;;;;;7.70;1.20;;;;;;;;;;5062611;28;20036;-77
2022/05/26 10:38:51;;;;;;;8.07;1.40;;;;;;;;;;5061472;28;20036;-78
2022/05/26 10:41:20;;;;;;;9.05;1.05;;;;;;;;;;5040804;28;20024;-78
2022/05/26 10:43:49;;;;;;;6.75;1.45;;;;;;;;;;5067073;28;20035;-78
2022/05/26 10:46:17;;;;;;;6.43;1.33;;;;;;;;;;5044760;28;20067;-78
2022/05/26 10:49:02;;;;;;;9.15;1.48;;;;;;;;;;5043766;28;20109;-78
2022/05/26 10:51:32;;;;;;;8.82;1.60;;;;;;;;;;5042047;28;20459;-78
2022/05/26 10:53:58;;;;;;;8.00;1.60;;;;;;;;;;5045082;28;20449;-78
2022/05/26 10:56:43;;;;;;;9.70;1.70;;;;;;;;;;5039651;28;20033;-78
2022/05/26 10:59:20;;;;;;;11.77;1.85;;;;;;;;;;5054821;28;20036;-77
2022/05/26 11:01:52;;;;;;;10.93;1.45;;;;;;;;;;5058231;28;20602;-77
2022/05/26 11:04:21;;;;;;;9.57;1.60;;;;;;;;;;5040234;28;20063;-78
2022/05/26 11:06:48;;;;;;;8.80;1.60;;;;;;;;;;5054897;28;20028;-77
2022/05/26 11:09:21;;;;;;;7.78;1.25;;;;;;;;;;5038756;28;20040;-78
2022/05/26 11:11:49;;;;;;;8.10;1.30;;;;;;;;;;5054976;28;20047;-77
2022/05/26 11:17:24;;;;;;;6.38;1.10;;;;;;;;;;5062708;28;20129;-77
2022/05/26 11:19:50;;;;;;;8.63;1.30;;;;;;;;;;5058476;28;20103;-77
2022/05/26 11:22:17;;;;;;;5.05;1.00;;;;;;;;;;5055295;28;20389;-77
2022/05/26 11:24:50;;;;;;;6.07;1.25;;;;;;;;;;5065695;28;20378;-77
2022/05/26 11:27:22;;;;;;;8.20;1.20;;;;;;;;;;5065307;28;20328;-77
2022/05/26 11:29:55;;;;;;;4.03;0.90;;;;;;;;;;5068311;28;20059;-77
2022/05/26 11:38:23;;;;;;;5.45;1.23;;;;;;;;;;5023047;28;20076;-79
2022/05/26 11:41:01;;;;;;;6.63;1.20;;;;;;;;;;5010946;28;20048;-77
2022/05/26 11:43:58;;;;;;;6.22;1.40;;;;;;;;;;5025669;28;20576;-77
2022/05/26 11:46:42;;;;;;;5.85;1.40;;;;;;;;;;5022421;28;20044;-77
2022/05/26 11:49:10;;;;;;;4.40;1.27;;;;;;;;;;5024426;28;20036;-77
2022/05/26 11:51:41;;;;;;;6.28;1.17;;;;;;;;;;5011048;28;20025;-77
2022/05/26 11:54:08;;;;;;;6.40;1.50;;;;;;;;;;5023137;28;20578;-78
2022/05/26 11:56:34;;;;;;;7.30;1.20;;;;;;;;;;5029771;28;20116;-77
2022/05/26 11:59:19;;;;;;;5.53;1.20;;;;;;;;;;5029002;28;20029;-77
2022/05/26 12:01:48;;;;;;;5.28;1.02;;;;;;;;;;5027480;28;20225;-77
2022/05/26 12:04:26;;;;;;;4.15;0.82;;;;;;;;;;5007269;28;20053;-77
2022/05/26 12:06:58;;;;;;;5.05;1.20;;;;;;;;;;5026597;28;20067;-77
2022/05/26 12:09:33;;;;;;;9.02;1.40;;;;;;;;;;5038411;28;20505;-78
2022/05/26 12:12:14;;;;;;;4.82;1.05;;;;;;;;;;5065379;28;20052;-78
2022/05/26 12:15:03;;;;;;;4.55;0.90;;;;;;;;;;5058192;28;20116;-78
2022/05/26 12:17:32;;;;;;;7.10;1.45;;;;;;;;;;5065059;28;20126;-78
2022/05/26 12:20:11;;;;;;;7.80;1.63;;;;;;;;;;5051826;28;20085;-78
2022/05/26 12:23:00;;;;;;;5.85;1.17;;;;;;;;;;5067365;28;20028;-79
2022/05/26 12:25:28;;;;;;;5.45;1.38;;;;;;;;;;5059863;28;20140;-78
2022/05/26 12:27:57;;;;;;;8.63;1.85;;;;;;;;;;5068228;28;20052;-79
2022/05/26 12:30:32;;;;;;;10.32;1.90;;;;;;;;;;5064849;28;20438;-79
2022/05/26 12:33:00;;;;;;;4.67;1.60;;;;;;;;;;5067700;28;20024;-78
2022/05/26 12:35:32;;;;;;;7.65;2.05;;;;;;;;;;5065265;28;20429;-78
2022/05/26 12:38:01;;;;;;;7.40;1.77;;;;;;;;;;5050875;28;20109;-77
2022/05/26 12:40:39;;;;;;;8.73;2.03;;;;;;;;;;5066143;28;20110;-78
2022/05/26 12:43:05;;;;;;;7.13;1.90;;;;;;;;;;5067806;28;20255;-78
2022/05/26 12:45:47;;;;;;;6.57;1.38;;;;;;;;;;5072748;28;20449;-78
2022/05/26 12:48:13;;;;;;;7.88;1.55;;;;;;;;;;5071982;28;20062;-78
2022/05/26 12:50:42;;;;;;;7.95;1.90;;;;;;;;;;5055585;28;20391;-77
2022/05/26 12:53:18;;;;;;;11.20;2.90;;;;;;;;;;5067546;28;20027;-78
2022/05/26 12:55:58;;;;;;;5.55;1.30;;;;;;;;;;5068397;28;20544;-77
2022/05/26 12:58:27;;;;;;;8.50;1.45;;;;;;;;;;5068142;28;20032;-76
2022/05/26 13:00:55;;;;;;;6.18;1.25;;;;;;;;;;5073102;28;20394;-76
2022/05/26 13:03:48;;;;;;;5.88;1.23;;;;;;;;;;5070537;28;20107;-77
2022/05/26 13:06:26;;;;;;;7.53;1.00;;;;;;;;;;5042254;28;20076;-76
2022/05/26 13:08:52;;;;;;;4.47;1.00;;;;;;;;;;5070773;28;20717;-77
2022/05/26 13:11:20;;;;;;;7.47;1.70;;;;;;;;;;5068229;28;20032;-76
2022/05/26 13:13:48;;;;;;;5.60;1.15;;;;;;;;;;5075275;28;20040;-77
2022/05/26 13:16:33;;;;;;;6.55;1.42;;;;;;;;;;5070679;28;20024;-77
2022/05/26 13:19:19;;;;;;;5.15;1.00;;;;;;;;;;5071571;28;20550;-77
2022/05/26 13:21:46;;;;;;;9.40;1.48;;;;;;;;;;5072949;28;20136;-77
2022/05/26 13:24:19;;;;;;;5.78;1.30;;;;;;;;;;5067364;28;20126;-77
2022/05/26 13:26:46;;;;;;;6.07;1.48;;;;;;;;;;5073833;28;20024;-77
2022/05/26 13:29:14;;;;;;;7.65;1.38;;;;;;;;;;5069697;28;20036;-77
2022/05/26 13:34:32;;;;;;;6.55;1.60;;;;;;;;;;5076661;28;20607;-77
2022/05/26 13:37:03;;;;;;;5.90;1.20;;;;;;;;;;5055944;28;20025;-77
2022/05/26 13:39:29;;;;;;;7.53;1.35;;;;;;;;;;5050681;28;20706;-77
2022/05/26 13:41:56;;;;;;;6.43;1.23;;;;;;;;;;5072033;28;20031;-77
2022/05/26 13:44:38;;;;;;;4.97;1.23;;;;;;;;;;5052417;28;20371;-80
2022/05/26 13:47:08;;;;;;;8.48;1.88;;;;;;;;;;5068419;28;20028;-79
2022/05/26 13:49:39;;;;;;;9.68;1.67;;;;;;;;;;5053653;28;20063;-78
2022/05/26 13:52:25;;;;;;;5.97;1.27;;;;;;;;;;5049805;28;20039;-78
2022/05/26 13:55:03;;;;;;;7.43;1.38;;;;;;;;;;5079119;28;20042;-78
2022/05/26 13:57:38;;;;;;;5.90;1.23;;;;;;;;;;5060086;28;20698;-77
2022/05/26 14:00:07;;;;;;;5.78;1.08;;;;;;;;;;5053325;28;20028;-77
2022/05/26 14:02:34;;;;;;;6.07;1.08;;;;;;;;;;5071472;28;20192;-77
2022/05/26 14:05:01;;;;;;;7.28;1.50;;;;;;;;;;5073366;28;20032;-79
2022/05/26 14:07:34;;;;;;;5.15;1.20;;;;;;;;;;5067573;28;20034;-79
2022/05/26 14:10:04;;;;;;;7.13;1.17;;;;;;;;;;5053688;28;20109;-78
2022/05/26 14:12:30;;;;;;;7.13;1.45;;;;;;;;;;5053968;28;20051;-77
2022/05/26 14:14:57;;;;;;;7.03;1.30;;;;;;;;;;5055550;28;20095;-78
2022/05/26 14:17:25;;;;;;;6.78;1.55;;;;;;;;;;5073543;28;24303;-79
2022/05/26 14:19:51;;;;;;;5.80;1.40;;;;;;;;;;5054817;28;20036;-78
2022/05/26 14:22:25;;;;;;;6.78;1.40;;;;;;;;;;5052234;28;20562;-79
2022/05/26 14:24:53;;;;;;;5.82;1.27;;;;;;;;;;5052729;28;20034;-79
2022/05/26 14:27:30;;;;;;;6.10;1.30;;;;;;;;;;5067156;28;20079;-78
2022/05/26 14:30:00;;;;;;;6.18;1.63;;;;;;;;;;5072442;28;20126;-75
2022/05/26 14:32:29;;;;;;;6.25;1.33;;;;;;;;;;5069192;28;20144;-78
2022/05/26 14:35:01;;;;;;;6.43;1.42;;;;;;;;;;5046161;28;20070;-78
2022/05/26 14:37:28;;;;;;;4.63;1.23;;;;;;;;;;5050218;28;20458;-79
2022/05/26 14:39:55;;;;;;;4.53;1.13;;;;;;;;;;5072416;28;20067;-79
2022/05/26 14:42:24;;;;;;;2.70;0.70;;;;;;;;;;5067718;28;20443;-78
2022/05/26 14:44:51;;;;;;;5.80;1.00;;;;;;;;;;5070380;28;20117;-79
2022/05/26 14:47:19;;;;;;;5.10;1.00;;;;;;;;;;5051840;28;20035;-78
2022/05/26 14:49:48;;;;;;;8.65;0.95;;;;;;;;;;5058506;28;20763;-77
2022/05/26 14:52:15;;;;;;;4.65;1.00;;;;;;;;;;5068872;28;20525;-80
2022/05/26 14:57:28;;;;;;;5.50;1.00;;;;;;;;;;5069097;28;20154;-79
2022/05/26 14:59:54;;;;;;;7.32;1.08;;;;;;;;;;5058238;28;20117;-79
2022/05/26 15:02:20;;;;;;;4.10;1.05;;;;;;;;;;5054437;28;20138;-80
2022/05/26 15:04:46;;;;;;;5.03;1.00;;;;;;;;;;5073607;28;20069;-79
2022/05/26 15:07:14;;;;;;;6.03;1.00;;;;;;;;;;5064083;28;20136;-79
2022/05/26 15:09:41;;;;;;;2.88;0.80;;;;;;;;;;5059700;28;20151;-79
2022/05/26 15:12:07;;;;;;;3.58;0.93;;;;;;;;;;5051854;28;20044;-79
2022/05/26 15:14:35;;;;;;;2.97;0.70;;;;;;;;;;5055326;28;20023;-79
2022/05/26 15:17:04;;;;;;;4.30;1.00;;;;;;;;;;5068621;28;20301;-79
2022/05/26 15:19:50;;;;;;;2.78;0.75;;;;;;;;;;5069900;28;20145;-79
2022/05/26 15:22:17;;;;;;;6.10;1.00;;;;;;;;;;5055260;28;20034;-79
2022/05/26 15:24:45;;;;;;;6.03;1.00;;;;;;;;;;5072674;28;20118;-79
2022/05/26 15:27:13;;;;;;;4.43;0.77;;;;;;;;;;5073227;28;20036;-80
2022/05/26 15:29:39;;;;;;;3.22;0.90;;;;;;;;;;5072468;28;20039;-79
2022/05/26 15:32:10;;;;;;;6.45;1.65;;;;;;;;;;5068305;28;20020;-79
2022/05/26 15:34:39;;;;;;;6.70;1.77;;;;;;;;;;5058845;28;20100;-80
2022/05/26 15:37:06;;;;;;;5.40;1.02;;;;;;;;;;5066693;28;20020;-79
2022/05/26 15:39:32;;;;;;;3.63;0.98;;;;;;;;;;5068110;28;20052;-79
2022/05/26 15:41:58;;;;;;;3.72;0.90;;;;;;;;;;5071463;28;20028;-79
2022/05/26 15:44:24;;;;;;;6.82;1.10;;;;;;;;;;5032477;28;20032;-79